Time;durP1;ratioP1;P1;durP2;ratioP2;P2;SDS_P1;SDS_P2;PMS_P1;PMS_P2;Temp;Humidity;BMP_temperature;BMP_pressure;BME280_temperature;BME280_humidity;BME280_pressure;Samples;Min_cycle;Max_cycle;Signal;HPM_P1;HPM_P2
2021/08/10 00:00:59;;;;;;;;;;;;;;;26.04;48.91;100757.88;1758791;80;20768;-43
2021/08/10 00:03:25;;;;;;;;;;;;;;;26.05;48.96;100755.33;1749303;80;20419;-43
2021/08/10 00:05:51;;;;;;;;;;;;;;;26.07;49.03;100753.55;1743816;80;20199;-43
2021/08/10 00:08:18;;;;;;;;;;;;;;;26.08;49.09;100756.00;1747087;80;20167;-42
2021/08/10 00:10:44;;;;;;;;;;;;;;;26.08;49.17;100757.39;1753983;80;20181;-43
2021/08/10 00:13:12;;;;;;;;;;;;;;;26.10;49.24;100752.25;1753464;80;21002;-43
2021/08/10 00:15:38;;;;;;;;;;;;;;;26.12;49.30;100753.30;1749375;80;20434;-42
2021/08/10 00:18:05;;;;;;;;;;;;;;;26.12;49.35;100750.52;1753024;80;20232;-43
2021/08/10 00:20:31;;;;;;;;;;;;;;;26.13;49.41;100750.17;1759480;80;20534;-42
2021/08/10 00:22:57;;;;;;;;;;;;;;;26.13;49.48;100745.98;1752999;80;20511;-44
2021/08/10 00:25:23;;;;;;;;;;;;;;;26.15;49.52;100743.64;1750384;80;21038;-43
2021/08/10 00:27:49;;;;;;;;;;;;;;;26.16;49.58;100748.05;1749242;80;20089;-44
2021/08/10 00:30:15;;;;;;;;;;;;;;;26.17;49.63;100748.29;1744678;80;20230;-41
2021/08/10 00:32:40;;;;;;;;;;;;;;;26.19;49.70;100743.73;1744295;80;20167;-44
2021/08/10 00:35:07;;;;;;;;;;;;;;;26.19;49.76;100741.75;1751376;80;20268;-44
2021/08/10 00:37:33;;;;;;;;;;;;;;;26.21;49.80;100746.44;1749685;80;21092;-41
2021/08/10 00:39:59;;;;;;;;;;;;;;;26.22;49.85;100748.06;1744215;80;20479;-43
2021/08/10 00:42:25;;;;;;;;;;;;;;;26.22;49.91;100743.88;1749424;80;21495;-41
2021/08/10 00:44:51;;;;;;;;;;;;;;;26.23;49.95;100747.45;1741689;80;20699;-43
2021/08/10 00:47:17;;;;;;;;;;;;;;;26.24;50.00;100744.90;1746566;80;20351;-41
2021/08/10 00:49:43;;;;;;;;;;;;;;;26.25;50.04;100743.16;1751829;80;23257;-42
2021/08/10 00:52:09;;;;;;;;;;;;;;;26.26;50.09;100742.58;1744992;80;20204;-42
2021/08/10 00:54:34;;;;;;;;;;;;;;;26.27;50.15;100742.78;1751193;80;20174;-42
2021/08/10 00:57:01;;;;;;;;;;;;;;;26.28;50.20;100748.02;1745225;80;20211;-42
2021/08/10 00:59:27;;;;;;;;;;;;;;;26.29;50.24;100747.43;1746151;80;20482;-44
2021/08/10 01:01:53;;;;;;;;;;;;;;;26.29;50.30;100740.45;1758467;80;21096;-42
2021/08/10 01:04:18;;;;;;;;;;;;;;;26.30;50.32;100745.69;1751441;80;20188;-42
2021/08/10 01:07:08;;;;;;;;;;;;;;;26.31;50.35;100742.29;1748421;80;20176;-41
2021/08/10 01:09:57;;;;;;;;;;;;;;;26.32;50.41;100746.13;1744836;80;20828;-42
2021/08/10 01:12:43;;;;;;;;;;;;;;;26.32;50.46;100747.52;1744099;80;20225;-43
2021/08/10 01:15:14;;;;;;;;;;;;;;;26.32;50.50;100746.13;1749220;80;21016;-42
2021/08/10 01:18:06;;;;;;;;;;;;;;;26.33;50.56;100753.33;1754420;80;20350;-41
2021/08/10 01:20:42;;;;;;;;;;;;;;;26.34;50.58;100747.98;1749031;80;20292;-43
2021/08/10 01:23:08;;;;;;;;;;;;;;;26.35;50.62;100750.20;1747945;80;20226;-43
2021/08/10 01:25:38;;;;;;;;;;;;;;;26.35;50.66;100748.80;1748638;80;20616;-42
2021/08/10 01:28:14;;;;;;;;;;;;;;;26.35;50.69;100750.98;1746353;80;23292;-42
2021/08/10 01:31:03;;;;;;;;;;;;;;;26.35;50.76;100757.17;1722243;80;20217;-42
2021/08/10 01:33:30;;;;;;;;;;;;;;;26.36;50.81;100753.19;1748460;80;20218;-43
2021/08/10 01:35:56;;;;;;;;;;;;;;;26.36;50.84;100754.00;1751384;80;20177;-43
2021/08/10 01:38:23;;;;;;;;;;;;;;;26.37;50.88;100753.42;1750031;80;20888;-43
2021/08/10 01:40:49;;;;;;;;;;;;;;;26.38;50.93;100757.84;1722841;80;21907;-44
2021/08/10 01:43:15;;;;;;;;;;;;;;;26.39;51.00;100758.08;1714823;82;20214;-44
2021/08/10 01:45:41;;;;;;;;;;;;;;;26.39;51.02;100759.47;1706066;82;20299;-44
2021/08/10 01:48:08;;;;;;;;;;;;;;;26.41;51.06;100764.67;1717292;82;20227;-43
2021/08/10 01:50:34;;;;;;;;;;;;;;;26.40;51.10;100758.28;1715640;82;20487;-42
2021/08/10 01:53:00;;;;;;;;;;;;;;;26.41;51.12;100759.09;1713808;82;21143;-44
2021/08/10 01:55:26;;;;;;;;;;;;;;;26.42;51.18;100757.34;1714221;82;20229;-45
2021/08/10 01:57:52;;;;;;;;;;;;;;;26.42;51.20;100757.34;1715916;82;20201;-44
2021/08/10 02:00:18;;;;;;;;;;;;;;;26.43;51.25;100756.77;1716033;82;20208;-43
2021/08/10 02:02:44;;;;;;;;;;;;;;;26.43;51.28;100752.00;1717548;82;20215;-44
2021/08/10 02:05:10;;;;;;;;;;;;;;;26.45;51.31;100762.78;1699555;82;21120;-42
2021/08/10 02:07:37;;;;;;;;;;;;;;;26.45;51.33;100754.41;1714022;82;20385;-42
2021/08/10 02:10:04;;;;;;;;;;;;;;;26.46;51.36;100758.83;1716973;82;20176;-42
2021/08/10 02:12:30;;;;;;;;;;;;;;;26.46;51.37;100761.05;1713892;82;22117;-44
2021/08/10 02:14:56;;;;;;;;;;;;;;;26.47;51.41;100762.67;1714255;82;20223;-43
2021/08/10 02:17:23;;;;;;;;;;;;;;;26.47;51.46;100759.88;1720247;82;21128;-43
2021/08/10 02:19:49;;;;;;;;;;;;;;;26.47;51.48;100761.27;1715037;82;20503;-44
2021/08/10 02:22:15;;;;;;;;;;;;;;;26.48;51.50;100762.09;1717246;82;20282;-43
2021/08/10 02:24:44;;;;;;;;;;;;;;;26.49;51.52;100761.71;1713228;82;20451;-43
2021/08/10 02:27:13;;;;;;;;;;;;;;;26.49;51.55;100757.53;1716325;82;20180;-44
2021/08/10 02:29:41;;;;;;;;;;;;;;;26.51;51.58;100757.17;1715096;82;21329;-43
2021/08/10 02:32:09;;;;;;;;;;;;;;;26.50;51.61;100754.97;1717340;82;21769;-43
2021/08/10 02:34:35;;;;;;;;;;;;;;;26.50;51.65;100754.97;1713128;82;20167;-44
2021/08/10 02:37:02;;;;;;;;;;;;;;;26.50;51.67;100754.97;1716429;82;20200;-44
2021/08/10 02:39:28;;;;;;;;;;;;;;;26.51;51.70;100760.78;1714002;81;20178;-44
2021/08/10 02:41:54;;;;;;;;;;;;;;;26.52;51.70;100755.41;1741340;81;21541;-43
2021/08/10 02:44:20;;;;;;;;;;;;;;;26.53;51.72;100763.19;1742495;80;20127;-44
2021/08/10 02:46:46;;;;;;;;;;;;;;;26.54;51.75;100763.42;1744900;80;20200;-45
2021/08/10 02:49:12;;;;;;;;;;;;;;;26.53;51.77;100762.61;1740472;80;20202;-43
2021/08/10 02:51:38;;;;;;;;;;;;;;;26.54;51.80;100772.61;1738445;80;20281;-44
2021/08/10 02:54:05;;;;;;;;;;;;;;;26.54;51.83;100772.61;1737367;80;21161;-43
2021/08/10 02:56:38;;;;;;;;;;;;;;;26.56;51.82;100773.66;1745903;80;20172;-44
2021/08/10 02:59:20;;;;;;;;;;;;;;;26.55;51.86;100772.84;1737480;80;20204;-42
2021/08/10 03:01:49;;;;;;;;;;;;;;;26.55;51.87;100778.42;1738608;81;20199;-45
2021/08/10 03:04:15;;;;;;;;;;;;;;;26.56;51.89;100786.22;1744569;80;20171;-43
2021/08/10 03:06:43;;;;;;;;;;;;;;;26.56;51.93;100789.00;1743556;80;21751;-43
2021/08/10 03:09:09;;;;;;;;;;;;;;;26.56;51.95;100795.40;1741884;80;20152;-43
2021/08/10 03:11:40;;;;;;;;;;;;;;;26.56;51.98;100794.58;1748836;80;20275;-43
2021/08/10 03:14:06;;;;;;;;;;;;;;;26.57;52.00;100792.81;1741830;80;20468;-43
2021/08/10 03:16:32;;;;;;;;;;;;;;;26.57;52.01;100789.20;1729948;81;20238;-44
2021/08/10 03:18:59;;;;;;;;;;;;;;;26.59;52.04;100796.06;1741282;80;21525;-44
2021/08/10 03:21:26;;;;;;;;;;;;;;;26.58;52.06;100795.83;1739804;80;20215;-43
2021/08/10 03:23:55;;;;;;;;;;;;;;;26.59;52.10;100796.65;1742656;80;20257;-43
2021/08/10 03:26:23;;;;;;;;;;;;;;;26.59;52.12;100803.05;1743839;80;20196;-44
2021/08/10 03:28:50;;;;;;;;;;;;;;;26.60;52.13;100806.65;1745643;80;20201;-44
2021/08/10 03:31:15;;;;;;;;;;;;;;;26.60;52.15;100807.47;1740532;80;21287;-43
2021/08/10 03:33:41;;;;;;;;;;;;;;;26.61;52.16;100803.48;1743010;80;20763;-43
2021/08/10 03:36:08;;;;;;;;;;;;;;;26.62;52.18;100804.30;1742349;80;20491;-44
2021/08/10 03:38:34;;;;;;;;;;;;;;;26.62;52.22;100809.30;1747082;80;20355;-44
2021/08/10 03:41:00;;;;;;;;;;;;;;;26.63;52.22;100804.53;1731754;80;20241;-44
2021/08/10 03:43:27;;;;;;;;;;;;;;;26.63;52.26;100817.91;1717748;82;21222;-44
2021/08/10 03:45:53;;;;;;;;;;;;;;;26.63;52.26;100822.09;1714707;82;20784;-46
2021/08/10 03:48:19;;;;;;;;;;;;;;;26.63;52.28;100819.30;1715820;82;20183;-43
2021/08/10 03:50:45;;;;;;;;;;;;;;;26.66;52.29;100820.55;1716262;82;20212;-43
2021/08/10 03:53:10;;;;;;;;;;;;;;;26.65;52.32;100826.71;1711602;82;20282;-45
2021/08/10 03:55:36;;;;;;;;;;;;;;;26.67;52.32;100823.57;1719544;82;21039;-44
2021/08/10 03:58:04;;;;;;;;;;;;;;;26.66;52.37;100820.55;1713515;82;20275;-43
2021/08/10 04:00:30;;;;;;;;;;;;;;;26.67;52.40;100824.97;1718562;82;20233;-47
2021/08/10 04:02:55;;;;;;;;;;;;;;;26.68;52.44;100825.20;1717652;82;20164;-44
2021/08/10 04:05:21;;;;;;;;;;;;;;;26.69;52.47;100835.20;1713965;82;20187;-43
2021/08/10 04:07:47;;;;;;;;;;;;;;;26.69;52.50;100824.04;1709769;82;21116;-44
2021/08/10 04:10:13;;;;;;;;;;;;;;;26.70;52.55;100832.61;1706431;82;20777;-44
2021/08/10 04:12:39;;;;;;;;;;;;;;;26.70;52.56;100828.43;1719775;82;20207;-45
2021/08/10 04:15:06;;;;;;;;;;;;;;;26.71;52.61;100838.43;1692060;83;20244;-45
2021/08/10 04:17:34;;;;;;;;;;;;;;;26.71;52.63;100837.03;1705480;82;20430;-43
2021/08/10 04:20:00;;;;;;;;;;;;;;;26.72;52.64;100842.27;1704061;82;21120;-43
2021/08/10 04:22:26;;;;;;;;;;;;;;;26.74;52.69;100848.87;1711335;82;20226;-43
2021/08/10 04:24:52;;;;;;;;;;;;;;;26.74;52.71;100844.68;1711723;82;20747;-43
2021/08/10 04:27:18;;;;;;;;;;;;;;;26.74;52.75;100850.27;1720770;82;21456;-54
2021/08/10 04:29:44;;;;;;;;;;;;;;;26.73;52.76;100845.27;1713614;82;20820;-43
2021/08/10 04:32:10;;;;;;;;;;;;;;;26.75;52.74;100846.31;1714491;82;21780;-43
2021/08/10 04:34:36;;;;;;;;;;;;;;;26.76;52.78;100849.34;1709459;82;20183;-45
2021/08/10 04:37:03;;;;;;;;;;;;;;;26.77;52.78;100852.36;1708991;82;20241;-43
2021/08/10 04:39:29;;;;;;;;;;;;;;;26.77;52.82;100848.98;1719648;82;20227;-42
2021/08/10 04:41:55;;;;;;;;;;;;;;;26.80;52.83;100844.66;1736227;81;20285;-45
2021/08/10 04:44:22;;;;;;;;;;;;;;;26.80;52.85;100847.45;1733899;81;21090;-43
2021/08/10 04:46:48;;;;;;;;;;;;;;;26.80;52.75;100841.28;1740381;81;21593;-44
2021/08/10 04:49:15;;;;;;;;;;;;;;;26.81;52.57;100850.47;1739955;81;20187;-45
2021/08/10 04:51:40;;;;;;;;;;;;;;;26.79;52.38;100849.42;1735377;81;20212;-45
2021/08/10 04:54:07;;;;;;;;;;;;;;;26.79;52.22;100856.41;1741174;81;20719;-45
2021/08/10 04:56:32;;;;;;;;;;;;;;;26.77;52.11;100855.97;1745086;81;20677;-44
2021/08/10 04:58:58;;;;;;;;;;;;;;;26.77;52.00;100860.73;1736799;81;20177;-46
2021/08/10 05:01:24;;;;;;;;;;;;;;;26.76;51.83;100857.71;1738406;81;20247;-46
2021/08/10 05:03:50;;;;;;;;;;;;;;;26.73;51.71;100852.23;1737012;81;20185;-44
2021/08/10 05:06:16;;;;;;;;;;;;;;;26.72;51.59;100854.83;1741517;81;20169;-44
2021/08/10 05:08:42;;;;;;;;;;;;;;;26.69;51.48;100842.96;1738946;81;21116;-44
2021/08/10 05:11:09;;;;;;;;;;;;;;;26.68;51.39;100860.91;1736854;81;20954;-44
2021/08/10 05:13:36;;;;;;;;;;;;;;;26.67;51.26;100859.85;1740194;81;20206;-45
2021/08/10 05:16:02;;;;;;;;;;;;;;;26.65;51.17;100852.44;1736949;81;20272;-45
2021/08/10 05:18:28;;;;;;;;;;;;;;;26.64;51.06;100850.23;1740694;81;20572;-48
2021/08/10 05:20:54;;;;;;;;;;;;;;;26.62;50.93;100849.76;1735029;81;21080;-45
2021/08/10 05:23:20;;;;;;;;;;;;;;;26.61;50.88;100848.71;1740945;81;20321;-46
2021/08/10 05:25:46;;;;;;;;;;;;;;;26.59;50.76;100852.46;1739276;81;20751;-43
2021/08/10 05:28:11;;;;;;;;;;;;;;;26.56;50.66;100855.39;1736759;81;20691;-46
2021/08/10 05:30:37;;;;;;;;;;;;;;;26.55;50.53;100858.53;1733084;81;20197;-44
2021/08/10 05:33:03;;;;;;;;;;;;;;;26.51;50.47;100857.04;1738144;81;21070;-46
2021/08/10 05:35:29;;;;;;;;;;;;;;;26.50;50.36;100862.97;1738101;81;20170;-44
2021/08/10 05:37:55;;;;;;;;;;;;;;;26.47;50.28;100857.53;1739142;81;20822;-45
2021/08/10 05:40:21;;;;;;;;;;;;;;;26.47;50.19;100856.13;1746251;81;20113;-43
2021/08/10 05:42:47;;;;;;;;;;;;;;;26.45;50.08;100856.24;1747245;80;20269;-45
2021/08/10 05:45:13;;;;;;;;;;;;;;;26.44;49.99;100861.01;1746564;80;21189;-45
2021/08/10 05:47:38;;;;;;;;;;;;;;;26.43;49.84;100854.41;1752058;80;20260;-44
2021/08/10 05:50:05;;;;;;;;;;;;;;;26.39;49.72;100855.71;1749303;80;20244;-45
2021/08/10 05:52:31;;;;;;;;;;;;;;;26.40;49.63;100860.10;1747843;80;20416;-43
2021/08/10 05:54:58;;;;;;;;;;;;;;;26.39;49.54;100863.27;1749201;80;20239;-45
2021/08/10 05:57:23;;;;;;;;;;;;;;;26.37;49.41;100867.80;1753274;80;21173;-54
2021/08/10 05:59:49;;;;;;;;;;;;;;;26.35;49.29;100870.14;1749856;80;20179;-44
2021/08/10 06:02:15;;;;;;;;;;;;;;;26.32;49.17;100868.05;1747770;80;20221;-42
2021/08/10 06:04:41;;;;;;;;;;;;;;;26.30;49.08;100872.60;1750576;80;20734;-46
2021/08/10 06:07:07;;;;;;;;;;;;;;;26.29;48.92;100870.97;1753469;80;20290;-45
2021/08/10 06:09:33;;;;;;;;;;;;;;;26.27;48.79;100874.69;1750096;80;21007;-44
2021/08/10 06:11:59;;;;;;;;;;;;;;;26.27;48.71;100880.84;1748239;80;20427;-43
2021/08/10 06:14:25;;;;;;;;;;;;;;;26.25;48.57;100873.42;1752814;80;20100;-44
2021/08/10 06:16:51;;;;;;;;;;;;;;;26.24;48.44;100880.98;1749962;80;22282;-43
2021/08/10 06:19:17;;;;;;;;;;;;;;;26.21;48.33;100869.72;1752257;80;20255;-44
2021/08/10 06:21:43;;;;;;;;;;;;;;;26.19;48.29;100860.86;1752674;80;21033;-43
2021/08/10 06:24:09;;;;;;;;;;;;;;;26.19;48.25;100869.22;1746774;80;20212;-44
2021/08/10 06:26:35;;;;;;;;;;;;;;;26.18;48.17;100875.98;1748002;80;20198;-46
2021/08/10 06:29:01;;;;;;;;;;;;;;;26.18;48.13;100872.59;1752386;80;20258;-45
2021/08/10 06:31:29;;;;;;;;;;;;;;;26.16;48.07;100863.78;1747613;80;20159;-46
2021/08/10 06:33:55;;;;;;;;;;;;;;;26.18;48.00;100871.80;1749203;80;21114;-46
2021/08/10 06:36:21;;;;;;;;;;;;;;;26.17;47.91;100870.98;1754152;80;20355;-48
2021/08/10 06:38:47;;;;;;;;;;;;;;;26.16;47.87;100865.17;1748678;80;20213;-44
2021/08/10 06:41:13;;;;;;;;;;;;;;;26.16;47.79;100859.59;1752538;80;20137;-46
2021/08/10 06:43:39;;;;;;;;;;;;;;;26.15;47.70;100850.18;1749728;80;20195;-42
2021/08/10 06:46:05;;;;;;;;;;;;;;;26.14;47.62;100854.95;1749000;80;21128;-45
2021/08/10 06:48:31;;;;;;;;;;;;;;;26.13;47.54;100847.77;1747434;80;20492;-43
2021/08/10 06:50:57;;;;;;;;;;;;;;;26.12;47.46;100848.92;1756717;80;20262;-45
2021/08/10 06:53:23;;;;;;;;;;;;;;;26.11;47.35;100844.50;1743883;80;22226;-43
2021/08/10 06:55:50;;;;;;;;;;;;;;;26.10;47.24;100849.84;1752726;80;20189;-44
2021/08/10 06:58:16;;;;;;;;;;;;;;;26.09;47.16;100855.22;1751398;80;21227;-47
2021/08/10 07:00:42;;;;;;;;;;;;;;;26.07;47.09;100850.56;1756691;80;21678;-43
2021/08/10 07:03:08;;;;;;;;;;;;;;;26.07;46.97;100844.17;1750812;80;20206;-46
2021/08/10 07:05:35;;;;;;;;;;;;;;;26.06;46.90;100846.14;1744410;80;20181;-43
2021/08/10 07:08:01;;;;;;;;;;;;;;;26.09;46.84;100846.04;1757802;80;20204;-44
2021/08/10 07:10:27;;;;;;;;;;;;;;;26.13;46.79;100848.34;1744956;80;21103;-44
2021/08/10 07:12:53;;;;;;;;;;;;;;;26.16;46.75;100850.42;1744299;80;20254;-44
2021/08/10 07:15:19;;;;;;;;;;;;;;;26.15;46.53;100851.00;1745711;80;20270;-44
2021/08/10 07:17:45;;;;;;;;;;;;;;;26.13;46.35;100860.31;1754572;80;20198;-44
2021/08/10 07:20:12;;;;;;;;;;;;;;;26.11;46.19;100858.45;1751708;80;20747;-46
2021/08/10 07:22:38;;;;;;;;;;;;;;;26.06;46.05;100850.33;1748733;80;21130;-44
2021/08/10 07:25:04;;;;;;;;;;;;;;;26.05;45.93;100847.91;1746318;80;20301;-45
2021/08/10 07:27:31;;;;;;;;;;;;;;;26.03;45.81;100851.63;1751129;80;20224;-44
2021/08/10 07:29:57;;;;;;;;;;;;;;;25.98;45.70;100849.89;1752137;80;20212;-45
2021/08/10 07:32:23;;;;;;;;;;;;;;;25.97;45.58;100847.48;1754017;80;20173;-45
2021/08/10 07:34:49;;;;;;;;;;;;;;;25.94;45.48;100850.37;1752808;80;21167;-44
2021/08/10 07:37:16;;;;;;;;;;;;;;;25.92;45.37;100854.11;1749511;80;20245;-44
2021/08/10 07:39:42;;;;;;;;;;;;;;;25.89;45.26;100845.03;1740485;80;20428;-44
2021/08/10 07:42:08;;;;;;;;;;;;;;;25.86;45.16;100842.38;1748685;80;20155;-45
2021/08/10 07:44:34;;;;;;;;;;;;;;;25.82;45.09;100843.44;1749696;80;20456;-44
2021/08/10 07:47:02;;;;;;;;;;;;;;;25.83;45.00;100843.67;1751409;80;22292;-45
2021/08/10 07:49:28;;;;;;;;;;;;;;;25.80;44.90;100842.39;1751782;80;20489;-44
2021/08/10 07:51:54;;;;;;;;;;;;;;;25.78;44.79;100844.73;1747038;80;20291;-44
2021/08/10 07:54:20;;;;;;;;;;;;;;;25.77;44.71;100842.28;1750529;80;20722;-46
2021/08/10 07:56:46;;;;;;;;;;;;;;;25.75;44.62;100833.48;1752323;80;20478;-44
2021/08/10 07:59:12;;;;;;;;;;;;;;;25.75;44.53;100829.30;1748629;80;21165;-44
2021/08/10 08:01:38;;;;;;;;;;;;;;;25.73;44.43;100826.04;1748694;80;20808;-44
2021/08/10 08:04:04;;;;;;;;;;;;;;;25.72;44.36;100825.22;1746076;80;20263;-45
2021/08/10 08:06:30;;;;;;;;;;;;;;;25.71;44.26;100825.59;1752954;80;20181;-45
2021/08/10 08:08:56;;;;;;;;;;;;;;;25.70;44.18;100829.53;1750714;80;20209;-44
2021/08/10 08:11:23;;;;;;;;;;;;;;;25.70;44.12;100828.14;1753069;80;21105;-45
2021/08/10 08:13:49;;;;;;;;;;;;;;;25.68;44.03;100825.70;1745794;80;20178;-44
2021/08/10 08:16:15;;;;;;;;;;;;;;;25.66;43.96;100828.62;1745529;80;20232;-45
2021/08/10 08:18:42;;;;;;;;;;;;;;;25.66;43.88;100830.02;1749067;80;20670;-45
2021/08/10 08:21:09;;;;;;;;;;;;;;;25.64;43.79;100832.33;1748533;80;20209;-43
2021/08/10 08:23:37;;;;;;;;;;;;;;;25.63;43.71;100832.90;1750113;80;21109;-43
2021/08/10 08:26:03;;;;;;;;;;;;;;;25.61;43.65;100827.46;1748379;80;20202;-44
2021/08/10 08:28:28;;;;;;;;;;;;;;;25.60;43.58;100838.37;1747076;80;20387;-45
2021/08/10 08:30:54;;;;;;;;;;;;;;;25.59;43.50;100835.38;1747248;80;22152;-43
2021/08/10 08:33:20;;;;;;;;;;;;;;;25.57;43.44;100831.53;1753060;80;20164;-44
2021/08/10 08:35:46;;;;;;;;;;;;;;;25.57;43.37;100824.57;1749118;80;21083;-44
2021/08/10 08:38:13;;;;;;;;;;;;;;;25.57;43.29;100823.17;1747570;80;20206;-43
2021/08/10 08:40:45;;;;;;;;;;;;;;;25.55;43.24;100825.48;1750133;80;20152;-45
2021/08/10 08:43:11;;;;;;;;;;;;;;;25.55;43.17;100826.06;1751756;80;20189;-44
2021/08/10 08:45:41;;;;;;;;;;;;;;;25.54;43.09;100821.10;1745934;80;20489;-44
2021/08/10 08:48:07;;;;;;;;;;;;;;;25.53;43.03;100818.62;1751338;80;21232;-43
2021/08/10 08:50:33;;;;;;;;;;;;;;;25.52;42.95;100817.00;1748010;80;20158;-47
2021/08/10 08:53:00;;;;;;;;;;;;;;;25.50;42.89;100817.94;1751509;80;20212;-46
2021/08/10 08:55:26;;;;;;;;;;;;;;;25.49;42.83;100808.77;1753054;80;20722;-43
2021/08/10 08:57:52;;;;;;;;;;;;;;;25.48;42.76;100806.56;1753266;80;20178;-46
2021/08/10 09:00:18;;;;;;;;;;;;;;;25.48;42.73;100803.77;1748091;80;21140;-46
2021/08/10 09:02:45;;;;;;;;;;;;;;;25.48;42.64;100803.77;1747496;80;20160;-44
2021/08/10 09:05:12;;;;;;;;;;;;;;;25.46;42.57;100801.12;1744023;80;20220;-44
2021/08/10 09:07:39;;;;;;;;;;;;;;;25.46;42.52;100801.91;1751294;80;20174;-43
2021/08/10 09:10:14;;;;;;;;;;;;;;;25.45;42.45;100803.67;1752697;80;20506;-46
2021/08/10 09:12:50;;;;;;;;;;;;;;;25.45;42.39;100803.67;1748771;80;21161;-44
2021/08/10 09:15:37;;;;;;;;;;;;;;;25.43;42.33;100801.22;1753194;80;20180;-43
2021/08/10 09:18:15;;;;;;;;;;;;;;;25.43;42.30;100796.23;1753232;80;20178;-43
2021/08/10 09:20:43;;;;;;;;;;;;;;;25.43;42.20;100792.05;1747960;80;20722;-44
2021/08/10 09:23:09;;;;;;;;;;;;;;;25.42;42.15;100794.59;1747398;80;21321;-47
2021/08/10 09:25:35;;;;;;;;;;;;;;;25.42;42.09;100794.59;1749436;80;20910;-44
2021/08/10 09:28:07;;;;;;;;;;;;;;;25.40;42.04;100782.44;1755258;80;20101;-44
2021/08/10 09:30:34;;;;;;;;;;;;;;;25.40;42.00;100781.62;1748621;80;20433;-44
2021/08/10 09:33:03;;;;;;;;;;;;;;;25.39;42.00;100779.98;1753122;80;20547;-46
2021/08/10 09:35:33;;;;;;;;;;;;;;;25.39;42.07;100781.38;1747569;80;20143;-43
2021/08/10 09:38:09;;;;;;;;;;;;;;;25.40;42.13;100775.47;1758090;80;23206;-44
2021/08/10 09:40:40;;;;;;;;;;;;;;;25.40;42.14;100771.30;1754402;80;20407;-44
2021/08/10 09:43:32;;;;;;;;;;;;;;;25.41;42.15;100782.67;1744299;80;20463;-43
2021/08/10 09:46:14;;;;;;;;;;;;;;;25.41;42.15;100774.31;1747417;80;20519;-44
2021/08/10 09:48:43;;;;;;;;;;;;;;;25.41;42.15;100763.75;1746120;80;20225;-47
2021/08/10 09:51:12;;;;;;;;;;;;;;;25.40;42.14;100765.73;1742522;80;21798;-44
2021/08/10 09:53:38;;;;;;;;;;;;;;;25.40;42.14;100767.70;1738402;80;20229;-43
2021/08/10 09:56:05;;;;;;;;;;;;;;;25.39;42.13;100762.70;1744822;80;20889;-44
2021/08/10 09:58:31;;;;;;;;;;;;;;;25.40;42.12;100762.13;1743065;80;20409;-44
2021/08/10 10:01:01;;;;;;;;;;;;;;;25.40;42.14;100763.52;1743070;80;20165;-44
2021/08/10 10:03:25;;;;;;;;;;;;;;;25.41;42.13;100759.58;1741018;80;21339;-45
2021/08/10 10:05:51;;;;;;;;;;;;;;;25.41;42.08;100754.82;1739532;80;20164;-44
2021/08/10 10:08:20;;;;;;;;;;;;;;;25.41;42.06;100753.43;1748154;80;20200;-45
2021/08/10 10:10:47;;;;;;;;;;;;;;;25.42;42.03;100751.42;1746181;80;22139;-47
2021/08/10 10:13:17;;;;;;;;;;;;;;;25.42;42.02;100753.64;1747747;80;20163;-45
2021/08/10 10:15:43;;;;;;;;;;;;;;;25.44;41.98;100757.47;1739007;80;21201;-43
2021/08/10 10:18:10;;;;;;;;;;;;;;;25.45;41.94;100748.78;1750702;80;20182;-43
2021/08/10 10:20:37;;;;;;;;;;;;;;;25.45;41.92;100746.56;1746425;80;20143;-45
2021/08/10 10:23:04;;;;;;;;;;;;;;;25.46;41.88;100748.20;1742337;80;20259;-44
2021/08/10 10:25:30;;;;;;;;;;;;;;;25.47;41.83;100734.48;1744033;80;20151;-47
2021/08/10 10:27:57;;;;;;;;;;;;;;;25.48;41.80;100736.92;1737486;80;21115;-46
2021/08/10 10:30:23;;;;;;;;;;;;;;;25.48;41.76;100738.31;1747844;80;20091;-44
2021/08/10 10:32:49;;;;;;;;;;;;;;;25.48;41.72;100731.34;1744661;80;20194;-44
2021/08/10 10:35:17;;;;;;;;;;;;;;;25.49;41.70;100733.56;1724260;80;20259;-45
2021/08/10 10:37:43;;;;;;;;;;;;;;;25.46;41.64;100728.09;1743479;80;20151;-49
2021/08/10 10:40:10;;;;;;;;;;;;;;;25.46;41.60;100732.27;1741094;80;21101;-45
2021/08/10 10:42:37;;;;;;;;;;;;;;;25.44;41.56;100725.44;1744198;80;20484;-45
2021/08/10 10:45:04;;;;;;;;;;;;;;;25.42;41.54;100722.18;1751225;80;20494;-45
2021/08/10 10:47:34;;;;;;;;;;;;;;;25.41;41.51;100717.80;1750273;80;20401;-43
2021/08/10 10:50:05;;;;;;;;;;;;;;;25.39;41.49;100716.75;1746774;80;20464;-43
2021/08/10 10:52:32;;;;;;;;;;;;;;;25.38;41.46;100712.91;1755198;80;21293;-47
2021/08/10 10:54:58;;;;;;;;;;;;;;;25.37;41.43;100709.34;1750124;80;20173;-48
2021/08/10 10:57:32;;;;;;;;;;;;;;;25.38;41.42;100710.12;1751880;80;20274;-47
2021/08/10 11:00:07;;;;;;;;;;;;;;;25.37;41.39;100712.13;1754028;80;20184;-45
2021/08/10 11:02:36;;;;;;;;;;;;;;;25.37;41.37;100716.30;1746229;80;20498;-43
2021/08/10 11:05:17;;;;;;;;;;;;;;;25.37;41.31;100709.92;1742198;80;21084;-44
2021/08/10 11:07:44;;;;;;;;;;;;;;;25.37;41.32;100702.95;1755384;80;20195;-44
2021/08/10 11:10:41;;;;;;;;;;;;;;;25.38;41.29;100704.55;1749061;80;20191;-43
2021/08/10 11:13:23;;;;;;;;;;;;;;;25.39;41.25;100702.82;1748896;80;20205;-45
2021/08/10 11:15:53;;;;;;;;;;;;;;;25.40;41.22;100711.41;1705450;80;20209;-46
2021/08/10 11:18:20;;;;;;;;;;;;;;;25.40;41.17;100705.03;1751442;80;21141;-44
2021/08/10 11:20:53;;;;;;;;;;;;;;;25.41;41.14;100692.16;1747918;80;20139;-47
2021/08/10 11:23:24;;;;;;;;;;;;;;;25.43;41.11;100684.81;1751466;80;20194;-47
2021/08/10 11:25:55;;;;;;;;;;;;;;;25.44;41.09;100687.27;1747431;80;20220;-44
2021/08/10 11:28:34;;;;;;;;;;;;;;;25.46;41.06;100689.09;1749473;80;20226;-45
2021/08/10 11:31:04;;;;;;;;;;;;;;;25.48;41.00;100681.20;1749858;80;20987;-44
2021/08/10 11:33:40;;;;;;;;;;;;;;;25.50;40.97;100678.66;1749635;80;20439;-43
2021/08/10 11:36:15;;;;;;;;;;;;;;;25.52;40.92;100672.13;1744877;80;20169;-42
2021/08/10 11:38:53;;;;;;;;;;;;;;;25.55;40.90;100679.23;1752832;80;20477;-43
2021/08/10 11:41:29;;;;;;;;;;;;;;;25.57;40.88;100671.92;1751074;80;20422;-44
2021/08/10 11:44:00;;;;;;;;;;;;;;;25.60;40.81;100665.63;1750453;80;21140;-45
2021/08/10 11:46:34;;;;;;;;;;;;;;;25.61;40.76;100662.50;1752094;80;20461;-48
2021/08/10 11:49:02;;;;;;;;;;;;;;;25.64;40.74;100665.15;1699532;83;20264;-45
2021/08/10 11:51:38;;;;;;;;;;;;;;;25.66;40.70;100663.64;1751781;80;20334;-44
2021/08/10 11:54:27;;;;;;;;;;;;;;;25.68;40.67;100654.91;1758646;80;20541;-44
2021/08/10 11:56:55;;;;;;;;;;;;;;;25.71;40.63;100659.21;1751167;80;21126;-47
2021/08/10 11:59:25;;;;;;;;;;;;;;;25.76;40.63;100645.58;1756299;80;20188;-46
2021/08/10 12:01:51;;;;;;;;;;;;;;;25.83;40.57;100652.18;1751940;80;20205;-44
2021/08/10 12:04:22;;;;;;;;;;;;;;;25.89;40.52;100640.16;1755354;80;20957;-44
2021/08/10 12:06:52;;;;;;;;;;;;;;;25.93;40.47;100635.49;1752402;80;20178;-41
2021/08/10 12:09:20;;;;;;;;;;;;;;;25.96;40.45;100635.38;1758748;80;21151;-42
2021/08/10 12:11:51;;;;;;;;;;;;;;;25.99;40.41;100625.71;1755114;80;20393;-43
2021/08/10 12:14:25;;;;;;;;;;;;;;;26.05;40.39;100624.87;1759591;80;20156;-47
2021/08/10 12:16:58;;;;;;;;;;;;;;;26.11;40.33;100622.02;1755532;80;20522;-48
2021/08/10 12:19:36;;;;;;;;;;;;;;;26.14;40.27;100618.53;1757674;80;20185;-43
2021/08/10 12:22:04;;;;;;;;;;;;;;;26.17;40.21;100615.83;1753488;80;21511;-45
2021/08/10 12:24:34;;;;;;;;;;;;;;;26.21;40.14;100608.98;1749808;80;20241;-44
2021/08/10 12:27:02;;;;;;;;;;;;;;;26.24;40.12;100606.27;1760076;80;20145;-45
2021/08/10 12:29:35;;;;;;;;;;;;;;;26.27;40.09;100608.33;1756699;80;20127;-45
2021/08/10 12:32:01;;;;;;;;;;;;;;;26.30;40.09;100605.42;1763572;80;20221;-45
2021/08/10 12:34:31;;;;;;;;;;;;;;;26.33;40.12;100604.11;1729689;81;21319;-43
2021/08/10 12:36:58;;;;;;;;;;;;;;;26.38;40.13;100594.66;1757238;80;20200;-43
2021/08/10 12:39:24;;;;;;;;;;;;;;;26.43;40.17;100595.78;1758279;80;20186;-44